createdAt,value
2023-09-27T00:01:56.594Z,16.44
2023-09-27T00:04:26.992Z,16.45
2023-09-27T00:06:57.434Z,16.44
2023-09-27T00:09:27.690Z,16.43
2023-09-27T00:11:59.314Z,16.43
2023-09-27T00:14:29.618Z,16.44
2023-09-27T00:17:02.950Z,16.41
2023-09-27T00:19:34.074Z,16.38
2023-09-27T00:22:04.362Z,16.38
2023-09-27T00:24:35.545Z,16.35
2023-09-27T00:27:05.716Z,16.35
2023-09-27T00:29:36.054Z,16.33
2023-09-27T00:32:09.912Z,16.34
2023-09-27T00:34:40.225Z,16.32
2023-09-27T00:37:11.107Z,16.32
2023-09-27T00:39:41.298Z,16.32
2023-09-27T00:42:11.550Z,16.31
2023-09-27T00:44:41.774Z,16.29
2023-09-27T00:47:15.523Z,16.29
2023-09-27T00:49:47.706Z,16.26
2023-09-27T00:52:18.018Z,16.27
2023-09-27T00:54:49.976Z,16.25
2023-09-27T00:57:20.508Z,16.24
2023-09-27T00:59:51.021Z,16.23
2023-09-27T01:02:24.227Z,16.23
2023-09-27T01:04:55.921Z,16.24
2023-09-27T01:07:26.190Z,16.22
2023-09-27T01:09:56.534Z,16.21
2023-09-27T01:12:27.023Z,16.20
2023-09-27T01:14:57.705Z,16.19
2023-09-27T01:17:30.571Z,16.21
2023-09-27T01:20:00.893Z,16.21
2023-09-27T01:22:31.128Z,16.22
2023-09-27T01:25:06.103Z,16.20
2023-09-27T01:27:36.640Z,16.20
2023-09-27T01:30:07.231Z,16.21
2023-09-27T01:32:37.780Z,16.21
2023-09-27T01:35:09.742Z,16.19
2023-09-27T01:37:40.232Z,16.17
2023-09-27T01:40:18.616Z,16.18
2023-09-27T01:42:48.908Z,16.17
2023-09-27T01:45:19.301Z,16.18
2023-09-27T01:47:49.621Z,16.16
2023-09-27T01:50:21.104Z,16.15
2023-09-27T01:52:51.354Z,16.14
2023-09-27T01:55:24.658Z,16.12
2023-09-27T01:57:55.196Z,16.13
2023-09-27T02:00:25.642Z,16.11
2023-09-27T02:03:00.399Z,16.08
2023-09-27T02:05:32.924Z,16.09
2023-09-27T02:08:03.332Z,16.09
2023-09-27T02:10:36.228Z,16.10
2023-09-27T02:13:06.958Z,16.08
2023-09-27T02:15:37.405Z,16.09
2023-09-27T02:18:08.278Z,16.06
2023-09-27T02:20:38.920Z,16.07
2023-09-27T02:23:09.344Z,16.08
2023-09-27T02:25:42.668Z,16.05
2023-09-27T02:28:12.891Z,16.05
2023-09-27T02:30:43.743Z,16.03
2023-09-27T02:33:13.976Z,16.03
2023-09-27T02:35:45.012Z,16.00
2023-09-27T02:38:15.590Z,16.00
2023-09-27T02:40:48.562Z,15.99
2023-09-27T02:43:19.081Z,15.99
2023-09-27T02:45:50.954Z,15.98
2023-09-27T02:48:21.209Z,15.97
2023-09-27T02:50:53.877Z,15.96
2023-09-27T02:53:24.617Z,15.97
2023-09-27T02:55:57.490Z,15.96
2023-09-27T02:58:27.660Z,15.93
2023-09-27T03:00:58.380Z,15.93
2023-09-27T03:03:29.161Z,15.93
2023-09-27T03:05:59.486Z,15.92
2023-09-27T03:08:31.072Z,15.91
2023-09-27T03:11:08.143Z,15.88
2023-09-27T03:13:38.457Z,15.89
2023-09-27T03:16:08.860Z,15.92
2023-09-27T03:18:39.174Z,15.91
2023-09-27T03:21:09.749Z,15.88
2023-09-27T03:23:40.014Z,15.87
2023-09-27T03:26:13.255Z,15.86
2023-09-27T03:28:43.534Z,15.86
2023-09-27T03:31:13.969Z,15.85
2023-09-27T03:33:44.190Z,15.85
2023-09-27T03:36:14.426Z,15.86
2023-09-27T03:38:44.626Z,15.87
2023-09-27T03:41:17.622Z,15.86
2023-09-27T03:43:49.183Z,15.84
2023-09-27T03:46:19.562Z,15.84
2023-09-27T03:48:49.855Z,15.82
2023-09-27T03:51:27.603Z,15.82
2023-09-27T03:53:58.231Z,15.80
2023-09-27T03:56:36.177Z,15.79
2023-09-27T03:59:06.763Z,15.79
2023-09-27T04:01:37.329Z,15.79
2023-09-27T04:04:08.144Z,15.77
2023-09-27T04:06:38.757Z,15.77
2023-09-27T04:09:10.821Z,15.78
2023-09-27T04:11:43.835Z,15.79
2023-09-27T04:14:14.229Z,15.77
2023-09-27T04:16:44.475Z,15.77
2023-09-27T04:19:14.846Z,15.78
2023-09-27T04:21:45.005Z,15.75
2023-09-27T04:24:15.313Z,15.73
2023-09-27T04:26:48.265Z,15.76
2023-09-27T04:29:18.587Z,15.72
2023-09-27T04:31:48.882Z,15.75
2023-09-27T04:34:19.299Z,15.79
2023-09-27T04:36:49.502Z,15.79
2023-09-27T04:39:20.768Z,15.80
2023-09-27T04:41:53.550Z,15.82
2023-09-27T04:44:24.450Z,15.84
2023-09-27T04:46:55.761Z,15.84
2023-09-27T04:49:25.960Z,15.84
2023-09-27T04:51:56.163Z,15.84
2023-09-27T04:54:26.497Z,15.84
2023-09-27T04:56:59.625Z,15.83
2023-09-27T04:59:29.938Z,15.84
2023-09-27T05:02:00.256Z,15.89
2023-09-27T05:04:30.446Z,15.90
2023-09-27T05:07:00.840Z,15.92
2023-09-27T05:09:31.394Z,15.95
2023-09-27T05:12:05.049Z,15.99
2023-09-27T05:14:35.482Z,16.03
2023-09-27T05:17:06.407Z,16.05
2023-09-27T05:19:36.814Z,16.09
2023-09-27T05:22:07.084Z,16.12
2023-09-27T05:24:40.377Z,16.10
2023-09-27T05:27:13.298Z,16.11
2023-09-27T05:29:43.684Z,16.11
2023-09-27T05:32:14.142Z,16.13
2023-09-27T05:34:44.664Z,16.09
2023-09-27T05:37:16.117Z,16.06
2023-09-27T05:39:46.463Z,16.04
2023-09-27T05:42:19.305Z,16.05
2023-09-27T05:44:49.610Z,16.05
2023-09-27T05:47:19.979Z,16.06
2023-09-27T05:49:50.366Z,16.09
2023-09-27T05:52:20.660Z,16.08
2023-09-27T05:54:52.937Z,16.06
2023-09-27T05:57:25.866Z,16.14
2023-09-27T05:59:56.137Z,16.15
2023-09-27T06:02:32.612Z,16.09
2023-09-27T06:05:04.986Z,16.04
2023-09-27T06:07:35.295Z,16.02
2023-09-27T06:10:05.897Z,15.99
2023-09-27T06:12:38.952Z,15.98
2023-09-27T06:15:11.401Z,15.96
2023-09-27T06:17:41.830Z,15.92
2023-09-27T06:20:21.662Z,15.92
2023-09-27T06:22:54.368Z,15.92
2023-09-27T06:25:30.456Z,15.92
2023-09-27T06:28:04.329Z,15.90
2023-09-27T06:30:34.848Z,15.92
2023-09-27T06:33:05.228Z,15.87
2023-09-27T06:35:35.929Z,15.74
2023-09-27T06:38:07.260Z,15.69
2023-09-27T06:40:37.878Z,15.72
2023-09-27T06:43:10.855Z,15.74
2023-09-27T06:45:44.296Z,15.73
2023-09-27T06:48:14.956Z,15.73
2023-09-27T06:50:48.456Z,15.71
2023-09-27T06:53:24.236Z,15.72
2023-09-27T06:55:57.128Z,15.71
2023-09-27T06:58:31.602Z,15.72
2023-09-27T07:01:02.291Z,15.72
2023-09-27T07:03:35.866Z,15.71
2023-09-27T07:06:07.219Z,15.70
2023-09-27T07:08:38.211Z,15.69
2023-09-27T07:11:09.722Z,15.67
2023-09-27T07:13:43.461Z,15.65
2023-09-27T07:16:28.058Z,15.66
2023-09-27T07:19:01.365Z,15.65
2023-09-27T07:21:32.146Z,15.67
2023-09-27T07:24:02.960Z,15.66
2023-09-27T07:26:34.384Z,15.67
2023-09-27T07:29:09.671Z,15.65
2023-09-27T07:31:40.631Z,15.66
2023-09-27T07:34:11.771Z,15.68
2023-09-27T07:36:41.892Z,15.69
2023-09-27T07:39:13.185Z,15.70
2023-09-27T07:41:44.503Z,15.72
2023-09-27T07:44:19.659Z,15.71
2023-09-27T07:46:50.432Z,15.73
2023-09-27T07:49:21.102Z,15.76
2023-09-27T07:51:51.853Z,15.77
2023-09-27T07:54:22.876Z,15.77
2023-09-27T07:56:55.928Z,15.77
2023-09-27T07:59:29.890Z,15.77
2023-09-27T08:02:00.963Z,15.78
2023-09-27T08:04:31.782Z,15.75
2023-09-27T08:07:02.416Z,15.73
2023-09-27T08:09:41.009Z,15.74
2023-09-27T08:12:12.153Z,15.74
2023-09-27T08:14:45.707Z,15.73
2023-09-27T08:17:16.723Z,15.72
2023-09-27T08:19:47.377Z,15.74
2023-09-27T08:22:18.505Z,15.72
2023-09-27T08:24:49.695Z,15.72
2023-09-27T08:27:21.400Z,15.70
2023-09-27T08:29:54.618Z,15.73
2023-09-27T08:32:25.348Z,15.69
2023-09-27T08:34:56.002Z,15.69
2023-09-27T08:37:26.399Z,15.69
2023-09-27T08:39:57.468Z,15.71
2023-09-27T08:42:28.870Z,15.70
2023-09-27T08:45:04.833Z,15.71
2023-09-27T08:47:36.772Z,15.71
2023-09-27T08:50:07.848Z,15.72
2023-09-27T08:52:42.824Z,15.72
2023-09-27T08:55:14.679Z,15.72
2023-09-27T08:57:50.213Z,15.71
2023-09-27T09:00:28.806Z,15.72
2023-09-27T09:03:04.666Z,15.71
2023-09-27T09:05:36.282Z,15.70
2023-09-27T09:08:09.101Z,15.71
2023-09-27T09:10:41.825Z,15.74
2023-09-27T09:13:15.620Z,15.74
2023-09-27T09:15:50.432Z,15.73
2023-09-27T09:18:34.647Z,15.73
2023-09-27T09:21:10.430Z,15.73
2023-09-27T09:23:48.170Z,15.70
2023-09-27T09:26:31.292Z,15.70
2023-09-27T09:29:04.090Z,15.69
2023-09-27T09:31:37.432Z,15.70
2023-09-27T09:34:08.388Z,15.69
2023-09-27T09:36:40.117Z,15.70
2023-09-27T09:39:15.255Z,15.69
2023-09-27T09:41:50.462Z,15.71
2023-09-27T09:44:21.070Z,15.71
2023-09-27T09:46:58.505Z,15.70
2023-09-27T09:49:29.221Z,15.71
2023-09-27T09:52:01.321Z,15.70
2023-09-27T09:54:39.573Z,15.71
2023-09-27T09:57:18.700Z,15.69
2023-09-27T10:00:00.240Z,15.69
2023-09-27T10:02:37.026Z,15.69
2023-09-27T10:05:10.266Z,15.67
2023-09-27T10:07:42.568Z,15.67
2023-09-27T10:10:15.131Z,15.67
2023-09-27T10:12:46.797Z,15.67
2023-09-27T10:15:19.466Z,15.65
2023-09-27T10:17:53.201Z,15.64
2023-09-27T10:20:25.922Z,15.63
2023-09-27T10:22:59.120Z,15.63
2023-09-27T10:25:39.300Z,15.62
2023-09-27T10:28:14.247Z,15.62
2023-09-27T10:31:19.552Z,15.61
2023-09-27T10:33:55.191Z,15.61
2023-09-27T10:36:35.794Z,15.60
2023-09-27T10:39:10.809Z,15.59
2023-09-27T10:41:48.824Z,15.59
2023-09-27T10:44:35.047Z,15.55
2023-09-27T10:47:07.912Z,15.59
2023-09-27T10:49:45.176Z,15.59
2023-09-27T10:52:20.451Z,15.57
2023-09-27T10:54:53.532Z,15.57
2023-09-27T10:57:25.765Z,15.57
2023-09-27T10:59:56.906Z,15.56
2023-09-27T11:02:34.382Z,15.57
2023-09-27T11:05:08.280Z,15.57
2023-09-27T11:07:54.213Z,15.57
2023-09-27T11:10:36.310Z,15.57
2023-09-27T11:13:12.183Z,15.57
2023-09-27T11:15:43.508Z,15.57
2023-09-27T11:18:14.957Z,15.58
2023-09-27T11:20:50.015Z,15.58
2023-09-27T11:23:22.586Z,15.58
2023-09-27T11:25:53.916Z,15.57
2023-09-27T11:28:24.725Z,15.58
2023-09-27T11:31:02.189Z,15.58
2023-09-27T11:33:36.160Z,15.58
2023-09-27T11:36:12.387Z,15.59
2023-09-27T11:38:43.016Z,15.57
2023-09-27T11:41:18.288Z,15.61
2023-09-27T11:43:50.738Z,15.59
2023-09-27T11:46:33.616Z,15.61
2023-09-27T11:49:11.982Z,15.61
2023-09-27T11:51:45.300Z,15.61
2023-09-27T11:54:16.788Z,15.63
2023-09-27T11:56:48.523Z,15.62
2023-09-27T11:59:19.273Z,15.62
2023-09-27T12:01:50.150Z,15.62
2023-09-27T12:04:20.835Z,15.61
2023-09-27T12:06:54.540Z,15.61
2023-09-27T12:09:25.240Z,15.58
2023-09-27T12:11:55.986Z,15.54
2023-09-27T12:14:26.645Z,15.54
2023-09-27T12:16:57.489Z,15.50
2023-09-27T12:19:28.029Z,15.50
2023-09-27T12:22:01.484Z,15.47
2023-09-27T12:24:32.435Z,15.49
2023-09-27T12:27:03.355Z,15.44
2023-09-27T12:29:34.533Z,15.45
2023-09-27T12:32:05.209Z,15.46
2023-09-27T12:34:37.175Z,15.47
2023-09-27T12:37:12.395Z,15.46
2023-09-27T12:39:42.818Z,15.42
2023-09-27T12:42:13.464Z,15.41
2023-09-27T12:44:44.570Z,15.41
2023-09-27T12:47:16.549Z,15.45
2023-09-27T12:49:48.174Z,15.46
2023-09-27T12:52:21.519Z,15.50
2023-09-27T12:54:52.365Z,15.48
2023-09-27T12:57:22.740Z,15.49
2023-09-27T12:59:53.844Z,15.48
2023-09-27T13:02:25.126Z,15.47
2023-09-27T13:04:55.834Z,15.49
2023-09-27T13:07:28.919Z,15.49
2023-09-27T13:09:59.557Z,15.48
2023-09-27T13:12:30.133Z,15.48
2023-09-27T13:15:01.231Z,15.48
2023-09-27T13:17:32.205Z,15.48
2023-09-27T13:20:02.636Z,15.51
2023-09-27T13:22:35.744Z,15.50
2023-09-27T13:25:07.961Z,15.49
2023-09-27T13:27:38.675Z,15.49
2023-09-27T13:30:32.988Z,15.49
2023-09-27T13:33:06.781Z,15.51
2023-09-27T13:35:39.589Z,15.52
2023-09-27T13:38:14.320Z,15.50
2023-09-27T13:40:45.607Z,15.48
2023-09-27T13:43:16.454Z,15.49
2023-09-27T13:45:48.241Z,15.50
2023-09-27T13:48:19.125Z,15.50
2023-09-27T13:50:49.809Z,15.50
2023-09-27T13:53:22.986Z,15.51
2023-09-27T13:55:53.944Z,15.51
2023-09-27T13:58:24.627Z,15.54
2023-09-27T14:00:56.189Z,15.54
2023-09-27T14:03:26.905Z,15.57
2023-09-27T14:05:57.380Z,15.57
2023-09-27T14:08:30.743Z,15.58
2023-09-27T14:11:01.878Z,15.57
2023-09-27T14:13:31.877Z,15.57
2023-09-27T14:16:02.504Z,15.58
2023-09-27T14:18:33.073Z,15.60
2023-09-27T14:21:03.696Z,15.58
2023-09-27T14:23:37.604Z,15.59
2023-09-27T14:26:09.365Z,15.60
2023-09-27T14:28:40.474Z,15.61
2023-09-27T14:31:10.894Z,15.60
2023-09-27T14:33:41.680Z,15.60
2023-09-27T14:36:12.370Z,15.62
2023-09-27T14:38:47.183Z,15.59
2023-09-27T14:41:17.787Z,15.60
2023-09-27T14:43:48.345Z,15.59
2023-09-27T14:46:19.329Z,15.60
2023-09-27T14:48:49.961Z,15.60
2023-09-27T14:51:21.755Z,15.59
2023-09-27T14:53:55.060Z,15.59
2023-09-27T14:56:25.560Z,15.60
2023-09-27T14:58:56.191Z,15.58
2023-09-27T15:01:26.808Z,15.59
2023-09-27T15:03:57.795Z,15.58
2023-09-27T15:06:28.491Z,15.60
2023-09-27T15:09:01.876Z,15.60
2023-09-27T15:11:32.672Z,15.60
2023-09-27T15:14:04.067Z,15.58
2023-09-27T15:16:38.612Z,15.59
2023-09-27T15:19:09.765Z,15.57
2023-09-27T15:21:41.059Z,15.59
2023-09-27T15:24:15.290Z,15.58
2023-09-27T15:26:49.241Z,15.55
2023-09-27T15:29:19.966Z,15.58
2023-09-27T15:31:50.827Z,15.58
2023-09-27T15:34:22.169Z,15.58
2023-09-27T15:36:53.058Z,15.57
2023-09-27T15:39:26.724Z,15.54
2023-09-27T15:41:58.345Z,15.55
2023-09-27T15:44:30.748Z,15.57
2023-09-27T15:47:01.903Z,15.55
2023-09-27T15:49:33.463Z,15.55
2023-09-27T15:52:03.947Z,15.55
2023-09-27T15:54:37.464Z,15.57
2023-09-27T15:57:08.545Z,15.54
2023-09-27T15:59:39.899Z,15.54
2023-09-27T16:02:10.026Z,15.35
2023-09-27T16:04:51.522Z,15.34
2023-09-27T16:07:23.173Z,15.40
2023-09-27T16:09:56.563Z,15.39
2023-09-27T16:12:27.743Z,15.44
2023-09-27T16:14:58.032Z,15.49
2023-09-27T16:17:28.589Z,15.48
2023-09-27T16:19:59.381Z,15.49
2023-09-27T16:22:29.765Z,15.48
2023-09-27T16:25:05.110Z,15.48
2023-09-27T16:27:35.636Z,15.50
2023-09-27T16:30:07.270Z,15.50
2023-09-27T16:32:38.819Z,15.49
2023-09-27T16:35:10.575Z,15.53
2023-09-27T16:37:41.064Z,15.55
2023-09-27T16:40:15.531Z,15.58
2023-09-27T16:42:46.037Z,15.58
2023-09-27T16:45:17.223Z,15.59
2023-09-27T16:47:48.290Z,15.60
2023-09-27T16:50:18.476Z,15.61
2023-09-27T16:52:48.925Z,15.61
2023-09-27T16:55:22.194Z,15.62
2023-09-27T16:57:52.805Z,15.60
2023-09-27T17:00:23.467Z,15.63
2023-09-27T17:02:55.261Z,15.63
2023-09-27T17:05:27.761Z,15.62
2023-09-27T17:07:58.902Z,15.64
2023-09-27T17:10:34.445Z,15.63
2023-09-27T17:13:12.829Z,15.66
2023-09-27T17:15:47.248Z,15.65
2023-09-27T17:18:18.598Z,15.65
2023-09-27T17:20:50.171Z,15.65
2023-09-27T17:23:26.368Z,15.66
2023-09-27T17:26:00.187Z,15.67
2023-09-27T17:28:31.064Z,15.69
2023-09-27T17:31:01.750Z,15.70
2023-09-27T17:33:35.939Z,15.71
2023-09-27T17:36:08.574Z,15.72
2023-09-27T17:38:40.411Z,15.72
2023-09-27T17:41:14.659Z,15.71
2023-09-27T17:43:45.597Z,15.70
2023-09-27T17:46:29.771Z,15.74
2023-09-27T17:49:05.844Z,15.74
2023-09-27T17:51:42.252Z,15.74
2023-09-27T17:54:14.053Z,15.56
2023-09-27T17:56:52.089Z,15.65
2023-09-27T17:59:23.782Z,15.70
2023-09-27T18:01:56.666Z,15.75
2023-09-27T18:04:31.058Z,15.76
2023-09-27T18:07:03.295Z,15.77
2023-09-27T18:09:34.301Z,15.77
2023-09-27T18:12:10.433Z,15.82
2023-09-27T18:14:43.476Z,15.84
2023-09-27T18:17:14.961Z,15.86
2023-09-27T18:19:47.458Z,15.86
2023-09-27T18:22:18.396Z,15.86
2023-09-27T18:24:54.177Z,15.88
2023-09-27T18:27:31.416Z,15.88
2023-09-27T18:30:02.714Z,15.88
2023-09-27T18:32:35.937Z,15.90
2023-09-27T18:35:11.576Z,15.94
2023-09-27T18:37:44.322Z,15.96
2023-09-27T18:40:16.128Z,15.97
2023-09-27T18:42:51.498Z,15.98
2023-09-27T18:45:23.635Z,16.01
2023-09-27T18:47:57.068Z,16.03
2023-09-27T18:50:29.540Z,16.06
2023-09-27T18:53:00.469Z,16.07
2023-09-27T18:55:33.979Z,16.08
2023-09-27T18:58:08.360Z,16.09
2023-09-27T19:00:39.511Z,16.08
2023-09-27T19:03:11.947Z,16.07
2023-09-27T19:05:43.277Z,16.06
2023-09-27T19:08:15.746Z,16.09
2023-09-27T19:10:47.194Z,16.09
2023-09-27T19:13:23.827Z,16.11
2023-09-27T19:15:56.761Z,16.11
2023-09-27T19:18:31.050Z,16.09
2023-09-27T19:21:11.689Z,16.11
2023-09-27T19:23:46.796Z,16.13
2023-09-27T19:26:24.155Z,16.12
2023-09-27T19:28:59.036Z,16.12
2023-09-27T19:31:38.846Z,16.14
2023-09-27T19:34:21.779Z,16.15
2023-09-27T19:37:02.142Z,16.15
2023-09-27T19:39:34.404Z,16.15
2023-09-27T19:42:08.500Z,16.16
2023-09-27T19:44:44.479Z,16.17
2023-09-27T19:47:21.917Z,16.17
2023-09-27T19:49:58.948Z,16.16
2023-09-27T19:52:34.919Z,16.15
2023-09-27T19:55:14.995Z,16.17
2023-09-27T19:57:50.234Z,16.21
2023-09-27T20:00:26.526Z,16.24
2023-09-27T20:03:06.041Z,16.32
2023-09-27T20:05:43.308Z,16.39
2023-09-27T20:08:15.608Z,16.44
2023-09-27T20:10:48.847Z,16.44
2023-09-27T20:13:26.516Z,16.50
2023-09-27T20:16:05.182Z,16.55
2023-09-27T20:18:40.005Z,16.59
2023-09-27T20:21:15.024Z,16.57
2023-09-27T20:23:51.036Z,16.57
2023-09-27T20:26:30.988Z,16.57
2023-09-27T20:29:03.213Z,16.61
2023-09-27T20:31:40.945Z,16.63
2023-09-27T20:34:13.039Z,16.64
2023-09-27T20:36:49.780Z,16.66
2023-09-27T20:39:23.842Z,16.67
2023-09-27T20:41:57.935Z,16.67
2023-09-27T20:44:31.287Z,16.71
2023-09-27T20:47:08.298Z,16.62
2023-09-27T20:49:43.680Z,16.66
2023-09-27T20:52:16.133Z,16.73
2023-09-27T20:54:50.206Z,16.80
2023-09-27T20:57:22.395Z,16.77
2023-09-27T20:59:59.061Z,16.75
2023-09-27T21:02:40.394Z,16.73
2023-09-27T21:05:22.589Z,16.72
2023-09-27T21:07:59.400Z,16.70
2023-09-27T21:10:32.691Z,16.71
2023-09-27T21:13:04.750Z,16.71
2023-09-27T21:15:38.092Z,16.71
2023-09-27T21:18:15.020Z,16.71
2023-09-27T21:20:48.684Z,16.70
2023-09-27T21:23:28.550Z,16.71
2023-09-27T21:26:00.011Z,16.73
2023-09-27T21:28:31.949Z,16.71
2023-09-27T21:31:03.295Z,16.71
2023-09-27T21:33:38.739Z,16.71
2023-09-27T21:36:10.955Z,16.73
2023-09-27T21:38:42.992Z,16.72
2023-09-27T21:41:14.551Z,16.70
2023-09-27T21:43:46.737Z,16.71
2023-09-27T21:46:25.891Z,16.70
2023-09-27T21:49:00.932Z,16.71
2023-09-27T21:51:33.280Z,16.72
2023-09-27T21:54:06.894Z,16.72
2023-09-27T21:56:38.757Z,16.72
2023-09-27T21:59:10.602Z,16.72
2023-09-27T22:01:45.155Z,16.77
2023-09-27T22:04:20.792Z,16.68
2023-09-27T22:06:54.192Z,16.63
2023-09-27T22:09:26.270Z,16.59
2023-09-27T22:11:57.831Z,16.55
2023-09-27T22:14:28.832Z,16.50
2023-09-27T22:17:04.505Z,16.47
2023-09-27T22:19:43.760Z,16.46
2023-09-27T22:22:22.703Z,16.43
2023-09-27T22:24:54.181Z,16.38
2023-09-27T22:27:28.240Z,16.38
2023-09-27T22:29:59.677Z,16.35
2023-09-27T22:32:33.708Z,16.34
2023-09-27T22:35:21.327Z,16.31
2023-09-27T22:37:55.008Z,16.31
2023-09-27T22:40:27.916Z,16.29
2023-09-27T22:43:00.848Z,16.26
2023-09-27T22:45:36.790Z,16.26
2023-09-27T22:48:14.695Z,16.24
2023-09-27T22:50:50.813Z,16.22
2023-09-27T22:53:24.052Z,16.22
2023-09-27T22:55:59.702Z,16.19
2023-09-27T22:58:32.983Z,16.19
2023-09-27T23:01:22.078Z,16.15
2023-09-27T23:03:55.477Z,16.15
2023-09-27T23:06:30.476Z,16.14
2023-09-27T23:09:07.888Z,16.14
2023-09-27T23:11:42.220Z,16.12
2023-09-27T23:14:23.522Z,16.11
2023-09-27T23:17:14.829Z,16.10
2023-09-27T23:19:45.262Z,16.10
2023-09-27T23:22:18.992Z,16.09
2023-09-27T23:24:51.022Z,16.09
2023-09-27T23:27:28.218Z,16.07
2023-09-27T23:29:57.453Z,16.05
2023-09-27T23:32:31.649Z,16.06
2023-09-27T23:35:00.724Z,16.04
2023-09-27T23:37:36.688Z,16.04
2023-09-27T23:40:15.017Z,16.03
2023-09-27T23:42:48.539Z,16.02
2023-09-27T23:45:19.822Z,16.01
2023-09-27T23:47:52.360Z,16.01
2023-09-27T23:50:31.489Z,16.01
2023-09-27T23:53:07.168Z,15.99
2023-09-27T23:55:42.566Z,15.99
2023-09-27T23:58:14.208Z,15.99
